sensor_id;sensor_type;location;lat;lon;timestamp;P1;durP1;ratioP1;P2;durP2;ratioP2
19199;SDS011;9732;52.498;5.408;2023-06-04T00:00:32;0.17;;;0.17;;
19199;SDS011;9732;52.498;5.408;2023-06-04T00:02:59;0.20;;;0.20;;
19199;SDS011;9732;52.498;5.408;2023-06-04T00:05:26;0.20;;;0.20;;
19199;SDS011;9732;52.498;5.408;2023-06-04T00:07:56;0.20;;;0.20;;
19199;SDS011;9732;52.498;5.408;2023-06-04T00:10:26;0.20;;;0.20;;
19199;SDS011;9732;52.498;5.408;2023-06-04T00:12:53;0.20;;;0.20;;
19199;SDS011;9732;52.498;5.408;2023-06-04T00:15:20;0.20;;;0.20;;
19199;SDS011;9732;52.498;5.408;2023-06-04T00:17:47;0.20;;;0.20;;
19199;SDS011;9732;52.498;5.408;2023-06-04T00:20:14;0.20;;;0.20;;
19199;SDS011;9732;52.498;5.408;2023-06-04T00:22:41;0.20;;;0.20;;
19199;SDS011;9732;52.498;5.408;2023-06-04T00:25:08;0.20;;;0.20;;
19199;SDS011;9732;52.498;5.408;2023-06-04T00:27:38;0.20;;;0.20;;
19199;SDS011;9732;52.498;5.408;2023-06-04T00:30:05;0.20;;;0.20;;
19199;SDS011;9732;52.498;5.408;2023-06-04T00:32:33;0.20;;;0.20;;
19199;SDS011;9732;52.498;5.408;2023-06-04T00:35:00;0.20;;;0.20;;
19199;SDS011;9732;52.498;5.408;2023-06-04T00:37:28;0.20;;;0.20;;
19199;SDS011;9732;52.498;5.408;2023-06-04T00:39:56;0.15;;;0.15;;
19199;SDS011;9732;52.498;5.408;2023-06-04T00:42:24;0.20;;;0.20;;
19199;SDS011;9732;52.498;5.408;2023-06-04T00:44:53;0.10;;;0.10;;
19199;SDS011;9732;52.498;5.408;2023-06-04T00:47:22;0.20;;;0.20;;
19199;SDS011;9732;52.498;5.408;2023-06-04T00:49:49;0.20;;;0.20;;
19199;SDS011;9732;52.498;5.408;2023-06-04T00:52:17;0.10;;;0.10;;
19199;SDS011;9732;52.498;5.408;2023-06-04T00:54:45;0.20;;;0.20;;
19199;SDS011;9732;52.498;5.408;2023-06-04T00:57:13;0.20;;;0.20;;
19199;SDS011;9732;52.498;5.408;2023-06-04T00:59:40;0.20;;;0.20;;
19199;SDS011;9732;52.498;5.408;2023-06-04T01:02:11;0.20;;;0.20;;
19199;SDS011;9732;52.498;5.408;2023-06-04T01:04:43;0.20;;;0.20;;
19199;SDS011;9732;52.498;5.408;2023-06-04T01:07:14;0.20;;;0.20;;
19199;SDS011;9732;52.498;5.408;2023-06-04T01:09:43;0.20;;;0.20;;
19199;SDS011;9732;52.498;5.408;2023-06-04T01:12:14;0.20;;;0.20;;
19199;SDS011;9732;52.498;5.408;2023-06-04T01:14:41;0.20;;;0.20;;
19199;SDS011;9732;52.498;5.408;2023-06-04T01:17:13;0.20;;;0.20;;
19199;SDS011;9732;52.498;5.408;2023-06-04T01:19:57;0.20;;;0.20;;
19199;SDS011;9732;52.498;5.408;2023-06-04T01:22:48;0.17;;;0.17;;
19199;SDS011;9732;52.498;5.408;2023-06-04T01:25:27;0.20;;;0.20;;
19199;SDS011;9732;52.498;5.408;2023-06-04T01:27:59;0.20;;;0.20;;
19199;SDS011;9732;52.498;5.408;2023-06-04T01:30:29;0.20;;;0.20;;
19199;SDS011;9732;52.498;5.408;2023-06-04T01:32:59;0.20;;;0.20;;
19199;SDS011;9732;52.498;5.408;2023-06-04T01:35:27;0.20;;;0.20;;
19199;SDS011;9732;52.498;5.408;2023-06-04T01:37:56;0.20;;;0.20;;
19199;SDS011;9732;52.498;5.408;2023-06-04T01:40:23;0.20;;;0.20;;
19199;SDS011;9732;52.498;5.408;2023-06-04T01:42:52;0.20;;;0.20;;
19199;SDS011;9732;52.498;5.408;2023-06-04T01:45:20;0.20;;;0.20;;
19199;SDS011;9732;52.498;5.408;2023-06-04T01:47:48;0.20;;;0.20;;
19199;SDS011;9732;52.498;5.408;2023-06-04T01:50:17;0.20;;;0.20;;
19199;SDS011;9732;52.498;5.408;2023-06-04T01:52:44;0.20;;;0.20;;
19199;SDS011;9732;52.498;5.408;2023-06-04T01:55:12;0.20;;;0.20;;
19199;SDS011;9732;52.498;5.408;2023-06-04T01:57:41;0.20;;;0.20;;
19199;SDS011;9732;52.498;5.408;2023-06-04T02:00:11;0.20;;;0.20;;
19199;SDS011;9732;52.498;5.408;2023-06-04T02:02:38;0.20;;;0.20;;
19199;SDS011;9732;52.498;5.408;2023-06-04T02:05:07;0.20;;;0.20;;
19199;SDS011;9732;52.498;5.408;2023-06-04T02:07:36;0.15;;;0.15;;
19199;SDS011;9732;52.498;5.408;2023-06-04T02:10:07;0.20;;;0.20;;
19199;SDS011;9732;52.498;5.408;2023-06-04T02:12:36;0.20;;;0.20;;
19199;SDS011;9732;52.498;5.408;2023-06-04T02:15:04;0.20;;;0.20;;
19199;SDS011;9732;52.498;5.408;2023-06-04T02:17:34;0.20;;;0.20;;
19199;SDS011;9732;52.498;5.408;2023-06-04T02:20:05;0.10;;;0.10;;
19199;SDS011;9732;52.498;5.408;2023-06-04T02:22:36;0.20;;;0.20;;
19199;SDS011;9732;52.498;5.408;2023-06-04T02:25:03;0.20;;;0.20;;
19199;SDS011;9732;52.498;5.408;2023-06-04T02:27:34;0.20;;;0.20;;
19199;SDS011;9732;52.498;5.408;2023-06-04T02:30:01;0.20;;;0.20;;
19199;SDS011;9732;52.498;5.408;2023-06-04T02:32:29;0.20;;;0.20;;
19199;SDS011;9732;52.498;5.408;2023-06-04T02:34:55;0.20;;;0.20;;
19199;SDS011;9732;52.498;5.408;2023-06-04T02:37:23;0.20;;;0.20;;
19199;SDS011;9732;52.498;5.408;2023-06-04T02:39:51;0.20;;;0.20;;
19199;SDS011;9732;52.498;5.408;2023-06-04T02:42:19;0.20;;;0.20;;
19199;SDS011;9732;52.498;5.408;2023-06-04T02:44:49;0.20;;;0.20;;
19199;SDS011;9732;52.498;5.408;2023-06-04T02:47:17;0.20;;;0.20;;
19199;SDS011;9732;52.498;5.408;2023-06-04T02:49:45;0.20;;;0.20;;
19199;SDS011;9732;52.498;5.408;2023-06-04T02:52:11;0.20;;;0.20;;
19199;SDS011;9732;52.498;5.408;2023-06-04T02:54:38;0.17;;;0.17;;
19199;SDS011;9732;52.498;5.408;2023-06-04T02:57:07;0.20;;;0.20;;
19199;SDS011;9732;52.498;5.408;2023-06-04T02:59:36;0.20;;;0.20;;
19199;SDS011;9732;52.498;5.408;2023-06-04T03:02:03;0.20;;;0.20;;
19199;SDS011;9732;52.498;5.408;2023-06-04T03:04:30;0.20;;;0.20;;
19199;SDS011;9732;52.498;5.408;2023-06-04T03:06:59;0.20;;;0.20;;
19199;SDS011;9732;52.498;5.408;2023-06-04T03:09:28;0.20;;;0.20;;
19199;SDS011;9732;52.498;5.408;2023-06-04T03:11:59;0.20;;;0.20;;
19199;SDS011;9732;52.498;5.408;2023-06-04T03:14:28;0.20;;;0.20;;
19199;SDS011;9732;52.498;5.408;2023-06-04T03:16:57;0.20;;;0.20;;
19199;SDS011;9732;52.498;5.408;2023-06-04T03:19:33;0.20;;;0.20;;
19199;SDS011;9732;52.498;5.408;2023-06-04T03:22:01;0.20;;;0.20;;
19199;SDS011;9732;52.498;5.408;2023-06-04T03:24:33;0.20;;;0.20;;
19199;SDS011;9732;52.498;5.408;2023-06-04T03:27:03;0.20;;;0.20;;
19199;SDS011;9732;52.498;5.408;2023-06-04T03:29:31;0.20;;;0.20;;
19199;SDS011;9732;52.498;5.408;2023-06-04T03:31:59;0.20;;;0.20;;
19199;SDS011;9732;52.498;5.408;2023-06-04T03:34:27;0.20;;;0.20;;
19199;SDS011;9732;52.498;5.408;2023-06-04T03:36:59;0.20;;;0.20;;
19199;SDS011;9732;52.498;5.408;2023-06-04T03:39:26;0.20;;;0.20;;
19199;SDS011;9732;52.498;5.408;2023-06-04T03:41:53;0.20;;;0.20;;
19199;SDS011;9732;52.498;5.408;2023-06-04T03:44:20;0.20;;;0.20;;
19199;SDS011;9732;52.498;5.408;2023-06-04T03:46:49;0.20;;;0.20;;
19199;SDS011;9732;52.498;5.408;2023-06-04T03:49:16;0.20;;;0.20;;
19199;SDS011;9732;52.498;5.408;2023-06-04T03:51:44;0.10;;;0.10;;
19199;SDS011;9732;52.498;5.408;2023-06-04T03:54:11;0.20;;;0.20;;
19199;SDS011;9732;52.498;5.408;2023-06-04T03:56:42;0.20;;;0.20;;
19199;SDS011;9732;52.498;5.408;2023-06-04T03:59:09;0.20;;;0.20;;
19199;SDS011;9732;52.498;5.408;2023-06-04T04:01:37;0.20;;;0.20;;
19199;SDS011;9732;52.498;5.408;2023-06-04T04:04:07;0.20;;;0.20;;
19199;SDS011;9732;52.498;5.408;2023-06-04T04:06:35;0.20;;;0.20;;
19199;SDS011;9732;52.498;5.408;2023-06-04T04:09:02;0.20;;;0.20;;
19199;SDS011;9732;52.498;5.408;2023-06-04T04:11:31;0.20;;;0.20;;
19199;SDS011;9732;52.498;5.408;2023-06-04T04:13:57;0.20;;;0.20;;
19199;SDS011;9732;52.498;5.408;2023-06-04T04:16:25;0.20;;;0.20;;
19199;SDS011;9732;52.498;5.408;2023-06-04T04:18:54;0.20;;;0.20;;
19199;SDS011;9732;52.498;5.408;2023-06-04T04:21:23;0.20;;;0.20;;
19199;SDS011;9732;52.498;5.408;2023-06-04T04:23:49;0.20;;;0.20;;
19199;SDS011;9732;52.498;5.408;2023-06-04T04:26:17;0.20;;;0.20;;
19199;SDS011;9732;52.498;5.408;2023-06-04T04:28:44;0.20;;;0.20;;
19199;SDS011;9732;52.498;5.408;2023-06-04T04:31:11;0.20;;;0.20;;
19199;SDS011;9732;52.498;5.408;2023-06-04T04:33:38;0.15;;;0.15;;
19199;SDS011;9732;52.498;5.408;2023-06-04T04:36:08;0.20;;;0.20;;
19199;SDS011;9732;52.498;5.408;2023-06-04T04:38:38;0.20;;;0.20;;
19199;SDS011;9732;52.498;5.408;2023-06-04T04:41:06;0.20;;;0.20;;
19199;SDS011;9732;52.498;5.408;2023-06-04T04:43:34;0.20;;;0.20;;
19199;SDS011;9732;52.498;5.408;2023-06-04T04:46:05;0.20;;;0.20;;
19199;SDS011;9732;52.498;5.408;2023-06-04T04:48:33;0.20;;;0.20;;
19199;SDS011;9732;52.498;5.408;2023-06-04T04:51:00;0.20;;;0.20;;
19199;SDS011;9732;52.498;5.408;2023-06-04T04:53:27;0.20;;;0.20;;
19199;SDS011;9732;52.498;5.408;2023-06-04T04:55:55;0.20;;;0.20;;
19199;SDS011;9732;52.498;5.408;2023-06-04T04:58:23;0.20;;;0.20;;
19199;SDS011;9732;52.498;5.408;2023-06-04T05:00:52;0.20;;;0.20;;
19199;SDS011;9732;52.498;5.408;2023-06-04T05:03:20;0.20;;;0.20;;
19199;SDS011;9732;52.498;5.408;2023-06-04T05:05:47;0.20;;;0.20;;
19199;SDS011;9732;52.498;5.408;2023-06-04T05:08:14;0.10;;;0.10;;
19199;SDS011;9732;52.498;5.408;2023-06-04T05:10:41;0.20;;;0.20;;
19199;SDS011;9732;52.498;5.408;2023-06-04T05:13:09;0.17;;;0.17;;
19199;SDS011;9732;52.498;5.408;2023-06-04T05:15:38;0.20;;;0.20;;
19199;SDS011;9732;52.498;5.408;2023-06-04T05:18:08;0.20;;;0.20;;
19199;SDS011;9732;52.498;5.408;2023-06-04T05:20:36;0.20;;;0.20;;
19199;SDS011;9732;52.498;5.408;2023-06-04T05:23:05;0.20;;;0.20;;
19199;SDS011;9732;52.498;5.408;2023-06-04T05:25:32;0.20;;;0.20;;
19199;SDS011;9732;52.498;5.408;2023-06-04T05:27:59;0.20;;;0.20;;
19199;SDS011;9732;52.498;5.408;2023-06-04T05:30:31;0.20;;;0.20;;
19199;SDS011;9732;52.498;5.408;2023-06-04T05:32:58;0.17;;;0.17;;
19199;SDS011;9732;52.498;5.408;2023-06-04T05:35:25;0.20;;;0.20;;
19199;SDS011;9732;52.498;5.408;2023-06-04T05:37:52;0.20;;;0.20;;
19199;SDS011;9732;52.498;5.408;2023-06-04T05:40:19;0.20;;;0.20;;
19199;SDS011;9732;52.498;5.408;2023-06-04T05:42:47;0.20;;;0.20;;
19199;SDS011;9732;52.498;5.408;2023-06-04T05:45:15;0.20;;;0.20;;
19199;SDS011;9732;52.498;5.408;2023-06-04T05:47:44;0.20;;;0.20;;
19199;SDS011;9732;52.498;5.408;2023-06-04T05:50:12;0.10;;;0.10;;
19199;SDS011;9732;52.498;5.408;2023-06-04T05:52:38;0.20;;;0.20;;
19199;SDS011;9732;52.498;5.408;2023-06-04T05:55:06;0.20;;;0.20;;
19199;SDS011;9732;52.498;5.408;2023-06-04T05:57:34;0.20;;;0.20;;
19199;SDS011;9732;52.498;5.408;2023-06-04T06:00:02;0.20;;;0.20;;
19199;SDS011;9732;52.498;5.408;2023-06-04T06:02:35;0.20;;;0.20;;
19199;SDS011;9732;52.498;5.408;2023-06-04T06:05:04;0.20;;;0.20;;
19199;SDS011;9732;52.498;5.408;2023-06-04T06:07:33;0.17;;;0.17;;
19199;SDS011;9732;52.498;5.408;2023-06-04T06:10:01;0.20;;;0.20;;
19199;SDS011;9732;52.498;5.408;2023-06-04T06:12:30;0.20;;;0.20;;
19199;SDS011;9732;52.498;5.408;2023-06-04T06:14:57;0.20;;;0.20;;
19199;SDS011;9732;52.498;5.408;2023-06-04T06:17:24;0.20;;;0.20;;
19199;SDS011;9732;52.498;5.408;2023-06-04T06:19:52;0.20;;;0.20;;
19199;SDS011;9732;52.498;5.408;2023-06-04T06:22:21;0.20;;;0.20;;
19199;SDS011;9732;52.498;5.408;2023-06-04T06:24:49;0.10;;;0.10;;
19199;SDS011;9732;52.498;5.408;2023-06-04T06:27:17;0.10;;;0.10;;
19199;SDS011;9732;52.498;5.408;2023-06-04T06:29:43;0.20;;;0.20;;
19199;SDS011;9732;52.498;5.408;2023-06-04T06:32:10;0.10;;;0.10;;
19199;SDS011;9732;52.498;5.408;2023-06-04T06:34:39;0.20;;;0.20;;
19199;SDS011;9732;52.498;5.408;2023-06-04T06:37:06;0.20;;;0.20;;
19199;SDS011;9732;52.498;5.408;2023-06-04T06:39:35;0.10;;;0.10;;
19199;SDS011;9732;52.498;5.408;2023-06-04T06:42:03;0.10;;;0.10;;
19199;SDS011;9732;52.498;5.408;2023-06-04T06:44:32;0.10;;;0.10;;
19199;SDS011;9732;52.498;5.408;2023-06-04T06:46:59;0.10;;;0.10;;
19199;SDS011;9732;52.498;5.408;2023-06-04T06:49:26;0.20;;;0.20;;
19199;SDS011;9732;52.498;5.408;2023-06-04T06:51:53;0.10;;;0.10;;
19199;SDS011;9732;52.498;5.408;2023-06-04T06:54:21;0.10;;;0.10;;
19199;SDS011;9732;52.498;5.408;2023-06-04T06:56:49;0.20;;;0.20;;
19199;SDS011;9732;52.498;5.408;2023-06-04T06:59:16;0.13;;;0.13;;
19199;SDS011;9732;52.498;5.408;2023-06-04T07:01:44;0.10;;;0.10;;
19199;SDS011;9732;52.498;5.408;2023-06-04T07:04:14;0.10;;;0.10;;
19199;SDS011;9732;52.498;5.408;2023-06-04T07:06:42;0.10;;;0.10;;
19199;SDS011;9732;52.498;5.408;2023-06-04T07:09:09;0.10;;;0.10;;
19199;SDS011;9732;52.498;5.408;2023-06-04T07:11:37;0.10;;;0.10;;
19199;SDS011;9732;52.498;5.408;2023-06-04T07:14:05;0.10;;;0.10;;
19199;SDS011;9732;52.498;5.408;2023-06-04T07:16:33;0.10;;;0.10;;
19199;SDS011;9732;52.498;5.408;2023-06-04T07:19:06;0.10;;;0.10;;
19199;SDS011;9732;52.498;5.408;2023-06-04T07:21:33;0.10;;;0.10;;
19199;SDS011;9732;52.498;5.408;2023-06-04T07:24:01;0.15;;;0.15;;
19199;SDS011;9732;52.498;5.408;2023-06-04T07:26:30;0.10;;;0.10;;
19199;SDS011;9732;52.498;5.408;2023-06-04T07:28:59;0.10;;;0.10;;
19199;SDS011;9732;52.498;5.408;2023-06-04T07:31:27;0.10;;;0.10;;
19199;SDS011;9732;52.498;5.408;2023-06-04T07:33:54;0.10;;;0.10;;
19199;SDS011;9732;52.498;5.408;2023-06-04T07:36:21;0.10;;;0.10;;
19199;SDS011;9732;52.498;5.408;2023-06-04T07:38:49;0.10;;;0.10;;
19199;SDS011;9732;52.498;5.408;2023-06-04T07:41:18;0.10;;;0.10;;
19199;SDS011;9732;52.498;5.408;2023-06-04T07:43:46;0.20;;;0.20;;
19199;SDS011;9732;52.498;5.408;2023-06-04T07:46:12;0.10;;;0.10;;
19199;SDS011;9732;52.498;5.408;2023-06-04T07:48:45;0.10;;;0.10;;
19199;SDS011;9732;52.498;5.408;2023-06-04T07:51:12;0.10;;;0.10;;
19199;SDS011;9732;52.498;5.408;2023-06-04T07:53:41;0.10;;;0.10;;
19199;SDS011;9732;52.498;5.408;2023-06-04T07:58:43;0.10;;;0.10;;
19199;SDS011;9732;52.498;5.408;2023-06-04T08:01:11;0.10;;;0.10;;
19199;SDS011;9732;52.498;5.408;2023-06-04T08:03:38;0.00;;;0.00;;
19199;SDS011;9732;52.498;5.408;2023-06-04T08:06:08;0.10;;;0.10;;
19199;SDS011;9732;52.498;5.408;2023-06-04T08:08:35;0.05;;;0.05;;
19199;SDS011;9732;52.498;5.408;2023-06-04T08:11:02;0.00;;;0.00;;
19199;SDS011;9732;52.498;5.408;2023-06-04T08:13:31;0.10;;;0.10;;
19199;SDS011;9732;52.498;5.408;2023-06-04T08:15:59;0.10;;;0.10;;
19199;SDS011;9732;52.498;5.408;2023-06-04T08:18:27;0.10;;;0.10;;
19199;SDS011;9732;52.498;5.408;2023-06-04T08:20:54;0.10;;;0.10;;
19199;SDS011;9732;52.498;5.408;2023-06-04T08:23:22;0.10;;;0.10;;
19199;SDS011;9732;52.498;5.408;2023-06-04T08:25:49;0.10;;;0.10;;
19199;SDS011;9732;52.498;5.408;2023-06-04T08:28:17;0.03;;;0.03;;
19199;SDS011;9732;52.498;5.408;2023-06-04T08:30:47;0.00;;;0.00;;
19199;SDS011;9732;52.498;5.408;2023-06-04T08:33:14;0.10;;;0.10;;
19199;SDS011;9732;52.498;5.408;2023-06-04T08:35:41;0.10;;;0.10;;
19199;SDS011;9732;52.498;5.408;2023-06-04T08:38:08;0.10;;;0.10;;
19199;SDS011;9732;52.498;5.408;2023-06-04T08:40:43;0.00;;;0.00;;
19199;SDS011;9732;52.498;5.408;2023-06-04T08:43:10;0.00;;;0.00;;
19199;SDS011;9732;52.498;5.408;2023-06-04T08:45:39;0.00;;;0.00;;
19199;SDS011;9732;52.498;5.408;2023-06-04T08:48:10;0.00;;;0.00;;
19199;SDS011;9732;52.498;5.408;2023-06-04T08:50:39;0.00;;;0.00;;
19199;SDS011;9732;52.498;5.408;2023-06-04T08:53:13;0.00;;;0.00;;
19199;SDS011;9732;52.498;5.408;2023-06-04T08:55:41;0.00;;;0.00;;
19199;SDS011;9732;52.498;5.408;2023-06-04T08:58:11;0.00;;;0.00;;
19199;SDS011;9732;52.498;5.408;2023-06-04T09:00:40;0.00;;;0.00;;
19199;SDS011;9732;52.498;5.408;2023-06-04T09:03:08;0.00;;;0.00;;
19199;SDS011;9732;52.498;5.408;2023-06-04T09:05:36;0.00;;;0.00;;
19199;SDS011;9732;52.498;5.408;2023-06-04T09:08:08;0.00;;;0.00;;
19199;SDS011;9732;52.498;5.408;2023-06-04T09:10:38;0.00;;;0.00;;
19199;SDS011;9732;52.498;5.408;2023-06-04T09:13:09;0.00;;;0.00;;
19199;SDS011;9732;52.498;5.408;2023-06-04T09:15:37;0.00;;;0.00;;
19199;SDS011;9732;52.498;5.408;2023-06-04T09:18:05;0.00;;;0.00;;
19199;SDS011;9732;52.498;5.408;2023-06-04T09:20:34;0.00;;;0.00;;
19199;SDS011;9732;52.498;5.408;2023-06-04T09:23:02;0.00;;;0.00;;
19199;SDS011;9732;52.498;5.408;2023-06-04T09:25:41;0.00;;;0.00;;
19199;SDS011;9732;52.498;5.408;2023-06-04T09:28:11;0.03;;;0.03;;
19199;SDS011;9732;52.498;5.408;2023-06-04T09:30:37;0.00;;;0.00;;
19199;SDS011;9732;52.498;5.408;2023-06-04T09:33:07;0.00;;;0.00;;
19199;SDS011;9732;52.498;5.408;2023-06-04T09:35:34;0.00;;;0.00;;
19199;SDS011;9732;52.498;5.408;2023-06-04T09:38:01;0.00;;;0.00;;
19199;SDS011;9732;52.498;5.408;2023-06-04T09:40:34;0.00;;;0.00;;
19199;SDS011;9732;52.498;5.408;2023-06-04T09:43:02;0.00;;;0.00;;
19199;SDS011;9732;52.498;5.408;2023-06-04T09:45:30;0.00;;;0.00;;
19199;SDS011;9732;52.498;5.408;2023-06-04T09:47:58;0.00;;;0.00;;
19199;SDS011;9732;52.498;5.408;2023-06-04T09:50:25;0.00;;;0.00;;
19199;SDS011;9732;52.498;5.408;2023-06-04T09:52:52;0.00;;;0.00;;
19199;SDS011;9732;52.498;5.408;2023-06-04T09:55:19;0.00;;;0.00;;
19199;SDS011;9732;52.498;5.408;2023-06-04T09:57:47;0.00;;;0.00;;
19199;SDS011;9732;52.498;5.408;2023-06-04T10:00:16;0.00;;;0.00;;
19199;SDS011;9732;52.498;5.408;2023-06-04T10:02:45;0.00;;;0.00;;
19199;SDS011;9732;52.498;5.408;2023-06-04T10:05:14;0.00;;;0.00;;
19199;SDS011;9732;52.498;5.408;2023-06-04T10:07:47;0.00;;;0.00;;
19199;SDS011;9732;52.498;5.408;2023-06-04T10:10:19;0.00;;;0.00;;
19199;SDS011;9732;52.498;5.408;2023-06-04T10:12:50;0.00;;;0.00;;
19199;SDS011;9732;52.498;5.408;2023-06-04T10:15:20;0.00;;;0.00;;
19199;SDS011;9732;52.498;5.408;2023-06-04T10:17:50;0.00;;;0.00;;
19199;SDS011;9732;52.498;5.408;2023-06-04T10:20:19;0.00;;;0.00;;
19199;SDS011;9732;52.498;5.408;2023-06-04T10:22:47;0.00;;;0.00;;
19199;SDS011;9732;52.498;5.408;2023-06-04T10:25:16;0.00;;;0.00;;
19199;SDS011;9732;52.498;5.408;2023-06-04T10:27:43;0.00;;;0.00;;
19199;SDS011;9732;52.498;5.408;2023-06-04T10:30:10;0.00;;;0.00;;
19199;SDS011;9732;52.498;5.408;2023-06-04T10:32:37;0.00;;;0.00;;
19199;SDS011;9732;52.498;5.408;2023-06-04T10:35:07;0.00;;;0.00;;
19199;SDS011;9732;52.498;5.408;2023-06-04T10:37:37;0.00;;;0.00;;
19199;SDS011;9732;52.498;5.408;2023-06-04T10:40:04;0.00;;;0.00;;
19199;SDS011;9732;52.498;5.408;2023-06-04T10:42:37;0.00;;;0.00;;
19199;SDS011;9732;52.498;5.408;2023-06-04T10:45:06;0.00;;;0.00;;
19199;SDS011;9732;52.498;5.408;2023-06-04T10:47:37;0.00;;;0.00;;
19199;SDS011;9732;52.498;5.408;2023-06-04T10:50:10;0.00;;;0.00;;
19199;SDS011;9732;52.498;5.408;2023-06-04T10:52:51;0.00;;;0.00;;
19199;SDS011;9732;52.498;5.408;2023-06-04T10:55:18;0.00;;;0.00;;
19199;SDS011;9732;52.498;5.408;2023-06-04T10:57:51;0.00;;;0.00;;
19199;SDS011;9732;52.498;5.408;2023-06-04T11:00:18;0.00;;;0.00;;
19199;SDS011;9732;52.498;5.408;2023-06-04T11:02:50;0.00;;;0.00;;
19199;SDS011;9732;52.498;5.408;2023-06-04T11:05:22;0.00;;;0.00;;
19199;SDS011;9732;52.498;5.408;2023-06-04T11:08:02;0.00;;;0.00;;
19199;SDS011;9732;52.498;5.408;2023-06-04T11:10:31;0.00;;;0.00;;
19199;SDS011;9732;52.498;5.408;2023-06-04T11:12:59;0.00;;;0.00;;
19199;SDS011;9732;52.498;5.408;2023-06-04T11:15:26;0.00;;;0.00;;
19199;SDS011;9732;52.498;5.408;2023-06-04T11:18:04;0.00;;;0.00;;
19199;SDS011;9732;52.498;5.408;2023-06-04T11:20:32;0.00;;;0.00;;
19199;SDS011;9732;52.498;5.408;2023-06-04T11:22:59;0.00;;;0.00;;
19199;SDS011;9732;52.498;5.408;2023-06-04T11:25:28;0.00;;;0.00;;
19199;SDS011;9732;52.498;5.408;2023-06-04T11:27:58;0.00;;;0.00;;
19199;SDS011;9732;52.498;5.408;2023-06-04T11:30:26;0.00;;;0.00;;
19199;SDS011;9732;52.498;5.408;2023-06-04T11:33:00;0.00;;;0.00;;
19199;SDS011;9732;52.498;5.408;2023-06-04T11:35:28;0.00;;;0.00;;
19199;SDS011;9732;52.498;5.408;2023-06-04T11:37:58;0.00;;;0.00;;
19199;SDS011;9732;52.498;5.408;2023-06-04T11:40:26;0.00;;;0.00;;
19199;SDS011;9732;52.498;5.408;2023-06-04T11:42:53;0.00;;;0.00;;
19199;SDS011;9732;52.498;5.408;2023-06-04T11:45:21;0.00;;;0.00;;
19199;SDS011;9732;52.498;5.408;2023-06-04T11:47:48;0.00;;;0.00;;
19199;SDS011;9732;52.498;5.408;2023-06-04T11:50:17;0.00;;;0.00;;
19199;SDS011;9732;52.498;5.408;2023-06-04T11:52:46;0.00;;;0.00;;
19199;SDS011;9732;52.498;5.408;2023-06-04T11:55:15;0.00;;;0.00;;
19199;SDS011;9732;52.498;5.408;2023-06-04T11:57:45;0.00;;;0.00;;
19199;SDS011;9732;52.498;5.408;2023-06-04T12:00:15;0.00;;;0.00;;
19199;SDS011;9732;52.498;5.408;2023-06-04T12:02:49;0.00;;;0.00;;
19199;SDS011;9732;52.498;5.408;2023-06-04T12:05:19;0.00;;;0.00;;
19199;SDS011;9732;52.498;5.408;2023-06-04T12:07:49;0.00;;;0.00;;
19199;SDS011;9732;52.498;5.408;2023-06-04T12:10:20;0.00;;;0.00;;
19199;SDS011;9732;52.498;5.408;2023-06-04T12:12:53;0.00;;;0.00;;
19199;SDS011;9732;52.498;5.408;2023-06-04T12:15:21;0.00;;;0.00;;
19199;SDS011;9732;52.498;5.408;2023-06-04T12:17:49;0.00;;;0.00;;
19199;SDS011;9732;52.498;5.408;2023-06-04T12:20:18;0.00;;;0.00;;
19199;SDS011;9732;52.498;5.408;2023-06-04T12:22:45;0.00;;;0.00;;
19199;SDS011;9732;52.498;5.408;2023-06-04T12:25:24;0.00;;;0.00;;
19199;SDS011;9732;52.498;5.408;2023-06-04T12:27:52;0.00;;;0.00;;
19199;SDS011;9732;52.498;5.408;2023-06-04T12:30:21;0.00;;;0.00;;
19199;SDS011;9732;52.498;5.408;2023-06-04T12:32:49;0.00;;;0.00;;
19199;SDS011;9732;52.498;5.408;2023-06-04T12:35:17;0.00;;;0.00;;
19199;SDS011;9732;52.498;5.408;2023-06-04T12:37:46;0.00;;;0.00;;
19199;SDS011;9732;52.498;5.408;2023-06-04T12:40:13;0.00;;;0.00;;
19199;SDS011;9732;52.498;5.408;2023-06-04T12:42:42;0.00;;;0.00;;
19199;SDS011;9732;52.498;5.408;2023-06-04T12:45:10;0.00;;;0.00;;
19199;SDS011;9732;52.498;5.408;2023-06-04T12:47:40;0.00;;;0.00;;
19199;SDS011;9732;52.498;5.408;2023-06-04T12:50:08;0.00;;;0.00;;
19199;SDS011;9732;52.498;5.408;2023-06-04T12:52:36;0.00;;;0.00;;
19199;SDS011;9732;52.498;5.408;2023-06-04T12:55:03;0.00;;;0.00;;
19199;SDS011;9732;52.498;5.408;2023-06-04T12:57:32;0.00;;;0.00;;
19199;SDS011;9732;52.498;5.408;2023-06-04T13:00:01;0.00;;;0.00;;
19199;SDS011;9732;52.498;5.408;2023-06-04T13:02:30;0.00;;;0.00;;
19199;SDS011;9732;52.498;5.408;2023-06-04T13:04:58;0.00;;;0.00;;
19199;SDS011;9732;52.498;5.408;2023-06-04T13:07:25;0.00;;;0.00;;
19199;SDS011;9732;52.498;5.408;2023-06-04T13:09:54;0.00;;;0.00;;
19199;SDS011;9732;52.498;5.408;2023-06-04T13:12:21;0.00;;;0.00;;
19199;SDS011;9732;52.498;5.408;2023-06-04T13:14:48;0.00;;;0.00;;
19199;SDS011;9732;52.498;5.408;2023-06-04T13:17:16;0.00;;;0.00;;
19199;SDS011;9732;52.498;5.408;2023-06-04T13:19:44;0.00;;;0.00;;
19199;SDS011;9732;52.498;5.408;2023-06-04T13:22:12;0.00;;;0.00;;
19199;SDS011;9732;52.498;5.408;2023-06-04T13:24:39;0.00;;;0.00;;
19199;SDS011;9732;52.498;5.408;2023-06-04T13:27:06;0.00;;;0.00;;
19199;SDS011;9732;52.498;5.408;2023-06-04T13:29:33;0.00;;;0.00;;
19199;SDS011;9732;52.498;5.408;2023-06-04T13:32:00;0.00;;;0.00;;
19199;SDS011;9732;52.498;5.408;2023-06-04T13:34:28;0.00;;;0.00;;
19199;SDS011;9732;52.498;5.408;2023-06-04T13:36:57;0.00;;;0.00;;
19199;SDS011;9732;52.498;5.408;2023-06-04T13:39:24;0.00;;;0.00;;
19199;SDS011;9732;52.498;5.408;2023-06-04T13:41:50;0.00;;;0.00;;
19199;SDS011;9732;52.498;5.408;2023-06-04T13:44:17;0.00;;;0.00;;
19199;SDS011;9732;52.498;5.408;2023-06-04T13:46:45;0.00;;;0.00;;
19199;SDS011;9732;52.498;5.408;2023-06-04T13:49:12;0.00;;;0.00;;
19199;SDS011;9732;52.498;5.408;2023-06-04T13:51:41;0.00;;;0.00;;
19199;SDS011;9732;52.498;5.408;2023-06-04T13:54:09;0.00;;;0.00;;
19199;SDS011;9732;52.498;5.408;2023-06-04T13:56:36;0.00;;;0.00;;
19199;SDS011;9732;52.498;5.408;2023-06-04T13:59:03;0.00;;;0.00;;
19199;SDS011;9732;52.498;5.408;2023-06-04T14:01:31;0.00;;;0.00;;
19199;SDS011;9732;52.498;5.408;2023-06-04T14:03:58;0.00;;;0.00;;
19199;SDS011;9732;52.498;5.408;2023-06-04T14:06:24;0.00;;;0.00;;
19199;SDS011;9732;52.498;5.408;2023-06-04T14:08:53;0.00;;;0.00;;
19199;SDS011;9732;52.498;5.408;2023-06-04T14:11:20;0.00;;;0.00;;
19199;SDS011;9732;52.498;5.408;2023-06-04T14:13:47;0.00;;;0.00;;
19199;SDS011;9732;52.498;5.408;2023-06-04T14:16:14;0.00;;;0.00;;
19199;SDS011;9732;52.498;5.408;2023-06-04T14:18:41;0.00;;;0.00;;
19199;SDS011;9732;52.498;5.408;2023-06-04T14:21:08;0.00;;;0.00;;
19199;SDS011;9732;52.498;5.408;2023-06-04T14:23:35;0.00;;;0.00;;
19199;SDS011;9732;52.498;5.408;2023-06-04T14:26:03;0.00;;;0.00;;
19199;SDS011;9732;52.498;5.408;2023-06-04T14:28:32;0.00;;;0.00;;
19199;SDS011;9732;52.498;5.408;2023-06-04T14:30:59;0.00;;;0.00;;
19199;SDS011;9732;52.498;5.408;2023-06-04T14:33:27;0.00;;;0.00;;
19199;SDS011;9732;52.498;5.408;2023-06-04T14:35:54;0.00;;;0.00;;
19199;SDS011;9732;52.498;5.408;2023-06-04T14:38:21;0.00;;;0.00;;
19199;SDS011;9732;52.498;5.408;2023-06-04T14:40:48;0.00;;;0.00;;
19199;SDS011;9732;52.498;5.408;2023-06-04T14:43:17;0.00;;;0.00;;
19199;SDS011;9732;52.498;5.408;2023-06-04T14:45:44;0.00;;;0.00;;
19199;SDS011;9732;52.498;5.408;2023-06-04T14:48:11;0.00;;;0.00;;
19199;SDS011;9732;52.498;5.408;2023-06-04T14:50:39;0.00;;;0.00;;
19199;SDS011;9732;52.498;5.408;2023-06-04T14:53:06;0.00;;;0.00;;
19199;SDS011;9732;52.498;5.408;2023-06-04T14:55:33;0.00;;;0.00;;
19199;SDS011;9732;52.498;5.408;2023-06-04T14:58:00;0.00;;;0.00;;
19199;SDS011;9732;52.498;5.408;2023-06-04T15:00:29;0.00;;;0.00;;
19199;SDS011;9732;52.498;5.408;2023-06-04T15:02:56;0.00;;;0.00;;
19199;SDS011;9732;52.498;5.408;2023-06-04T15:05:25;0.00;;;0.00;;
19199;SDS011;9732;52.498;5.408;2023-06-04T15:07:52;0.00;;;0.00;;
19199;SDS011;9732;52.498;5.408;2023-06-04T15:10:19;0.00;;;0.00;;